sensor_id;sensor_type;location;lat;lon;timestamp;pressure;altitude;pressure_sealevel;temperature;humidity
59873;BME280;50750;51.636;4.948;2022-08-21T00:02:20;101842.16;;;24.83;53.12
59873;BME280;50750;51.636;4.948;2022-08-21T00:04:48;101840.57;;;24.83;53.18
59873;BME280;50750;51.636;4.948;2022-08-21T00:07:14;101840.98;;;24.82;53.14
59873;BME280;50750;51.636;4.948;2022-08-21T00:09:41;101840.61;;;24.83;53.17
59873;BME280;50750;51.636;4.948;2022-08-21T00:12:07;101836.33;;;24.82;53.15
59873;BME280;50750;51.636;4.948;2022-08-21T00:14:34;101832.05;;;24.82;53.20
59873;BME280;50750;51.636;4.948;2022-08-21T00:17:02;101828.52;;;24.81;53.12
59873;BME280;50750;51.636;4.948;2022-08-21T00:19:29;101823.54;;;24.81;53.19
59873;BME280;50750;51.636;4.948;2022-08-21T00:21:55;101821.41;;;24.81;53.14
59873;BME280;50750;51.636;4.948;2022-08-21T00:24:24;101824.84;;;24.81;53.14
59873;BME280;50750;51.636;4.948;2022-08-21T00:26:51;101823.77;;;24.81;53.08
59873;BME280;50750;51.636;4.948;2022-08-21T00:29:18;101818.45;;;24.80;53.13
59873;BME280;50750;51.636;4.948;2022-08-21T00:31:45;101819.91;;;24.79;53.07
59873;BME280;50750;51.636;4.948;2022-08-21T00:34:13;101816.95;;;24.78;53.13
59873;BME280;50750;51.636;4.948;2022-08-21T00:36:40;101813.78;;;24.78;53.07
59873;BME280;50750;51.636;4.948;2022-08-21T00:39:07;101815.05;;;24.77;53.17
59873;BME280;50750;51.636;4.948;2022-08-21T00:41:36;101818.45;;;24.77;53.13
59873;BME280;50750;51.636;4.948;2022-08-21T00:44:04;101818.26;;;24.78;53.15
59873;BME280;50750;51.636;4.948;2022-08-21T00:46:31;101817.38;;;24.77;52.99
59873;BME280;50750;51.636;4.948;2022-08-21T00:48:57;101820.79;;;24.77;53.08
59873;BME280;50750;51.636;4.948;2022-08-21T00:51:34;101822.41;;;24.77;53.02
59873;BME280;50750;51.636;4.948;2022-08-21T00:54:02;101825.46;;;24.77;53.05
59873;BME280;50750;51.636;4.948;2022-08-21T00:56:29;101822.09;;;24.76;52.98
59873;BME280;50750;51.636;4.948;2022-08-21T00:58:57;101820.67;;;24.76;52.98
59873;BME280;50750;51.636;4.948;2022-08-21T01:01:26;101821.60;;;24.76;53.08
59873;BME280;50750;51.636;4.948;2022-08-21T01:03:53;101819.52;;;24.75;53.11
59873;BME280;50750;51.636;4.948;2022-08-21T01:06:20;101816.45;;;24.75;53.00
59873;BME280;50750;51.636;4.948;2022-08-21T01:08:47;101817.58;;;24.75;52.92
59873;BME280;50750;51.636;4.948;2022-08-21T01:11:15;101818.48;;;24.75;52.93
59873;BME280;50750;51.636;4.948;2022-08-21T01:13:43;101816.21;;;24.74;52.98
59873;BME280;50750;51.636;4.948;2022-08-21T01:16:14;101813.70;;;24.74;52.97
59873;BME280;50750;51.636;4.948;2022-08-21T01:18:43;101812.31;;;24.73;53.00
59873;BME280;50750;51.636;4.948;2022-08-21T01:21:13;101814.89;;;24.72;52.92
59873;BME280;50750;51.636;4.948;2022-08-21T01:23:44;101815.09;;;24.72;52.88
59873;BME280;50750;51.636;4.948;2022-08-21T01:26:13;101811.89;;;24.72;52.98
59873;BME280;50750;51.636;4.948;2022-08-21T01:28:48;101817.29;;;24.71;53.06
59873;BME280;50750;51.636;4.948;2022-08-21T01:31:17;101821.46;;;24.71;52.95
59873;BME280;50750;51.636;4.948;2022-08-21T01:33:45;101819.86;;;24.70;52.85
59873;BME280;50750;51.636;4.948;2022-08-21T01:36:12;101816.50;;;24.70;53.02
59873;BME280;50750;51.636;4.948;2022-08-21T01:38:38;101816.50;;;24.70;52.96
59873;BME280;50750;51.636;4.948;2022-08-21T01:41:05;101817.97;;;24.69;52.97
59873;BME280;50750;51.636;4.948;2022-08-21T01:43:31;101818.36;;;24.69;52.94
59873;BME280;50750;51.636;4.948;2022-08-21T01:45:58;101817.87;;;24.68;52.95
59873;BME280;50750;51.636;4.948;2022-08-21T01:48:25;101818.41;;;24.68;52.86
59873;BME280;50750;51.636;4.948;2022-08-21T01:50:51;101816.13;;;24.68;52.88
59873;BME280;50750;51.636;4.948;2022-08-21T01:53:18;101818.27;;;24.67;52.97
59873;BME280;50750;51.636;4.948;2022-08-21T01:55:44;101815.14;;;24.66;52.99
59873;BME280;50750;51.636;4.948;2022-08-21T01:58:11;101814.06;;;24.66;52.92
59873;BME280;50750;51.636;4.948;2022-08-21T02:00:37;101808.36;;;24.66;52.97
59873;BME280;50750;51.636;4.948;2022-08-21T02:03:04;101809.48;;;24.65;52.90
59873;BME280;50750;51.636;4.948;2022-08-21T02:05:30;101804.14;;;24.65;52.97
59873;BME280;50750;51.636;4.948;2022-08-21T02:07:57;101803.31;;;24.64;53.05
59873;BME280;50750;51.636;4.948;2022-08-21T02:10:29;101801.35;;;24.64;52.91
59873;BME280;50750;51.636;4.948;2022-08-21T02:12:58;101801.38;;;24.64;52.94
59873;BME280;50750;51.636;4.948;2022-08-21T02:15:28;101798.70;;;24.63;52.84
59873;BME280;50750;51.636;4.948;2022-08-21T02:17:57;101796.73;;;24.63;52.88
59873;BME280;50750;51.636;4.948;2022-08-21T02:20:30;101797.88;;;24.62;52.90
59873;BME280;50750;51.636;4.948;2022-08-21T02:22:58;101798.92;;;24.63;52.90
59873;BME280;50750;51.636;4.948;2022-08-21T02:25:25;101794.98;;;24.63;52.83
59873;BME280;50750;51.636;4.948;2022-08-21T02:27:52;101794.11;;;24.63;52.77
59873;BME280;50750;51.636;4.948;2022-08-21T02:30:23;101792.02;;;24.62;52.77
59873;BME280;50750;51.636;4.948;2022-08-21T02:32:50;101790.38;;;24.62;52.82
59873;BME280;50750;51.636;4.948;2022-08-21T02:35:16;101785.38;;;24.62;52.80
59873;BME280;50750;51.636;4.948;2022-08-21T02:37:47;101784.67;;;24.62;52.83
59873;BME280;50750;51.636;4.948;2022-08-21T02:40:15;101788.96;;;24.62;52.85
59873;BME280;50750;51.636;4.948;2022-08-21T02:42:42;101785.05;;;24.62;52.83
59873;BME280;50750;51.636;4.948;2022-08-21T02:45:10;101781.16;;;24.61;52.67
59873;BME280;50750;51.636;4.948;2022-08-21T02:47:38;101784.75;;;24.61;52.72
59873;BME280;50750;51.636;4.948;2022-08-21T02:50:06;101784.74;;;24.61;52.70
59873;BME280;50750;51.636;4.948;2022-08-21T02:52:32;101781.38;;;24.60;52.75
59873;BME280;50750;51.636;4.948;2022-08-21T02:55:00;101780.67;;;24.60;52.81
59873;BME280;50750;51.636;4.948;2022-08-21T02:57:27;101776.93;;;24.60;52.87
59873;BME280;50750;51.636;4.948;2022-08-21T02:59:54;101777.13;;;24.60;52.74
59873;BME280;50750;51.636;4.948;2022-08-21T03:02:20;101772.46;;;24.60;52.67
59873;BME280;50750;51.636;4.948;2022-08-21T03:04:47;101766.99;;;24.59;52.68
59873;BME280;50750;51.636;4.948;2022-08-21T03:07:14;101769.69;;;24.59;52.75
59873;BME280;50750;51.636;4.948;2022-08-21T03:09:41;101773.84;;;24.58;52.73
59873;BME280;50750;51.636;4.948;2022-08-21T03:12:07;101781.02;;;24.58;52.89
59873;BME280;50750;51.636;4.948;2022-08-21T03:14:34;101784.45;;;24.58;52.77
59873;BME280;50750;51.636;4.948;2022-08-21T03:17:00;101785.35;;;24.58;52.81
59873;BME280;50750;51.636;4.948;2022-08-21T03:19:27;101779.14;;;24.57;52.66
59873;BME280;50750;51.636;4.948;2022-08-21T03:21:53;101773.09;;;24.56;52.70
59873;BME280;50750;51.636;4.948;2022-08-21T03:24:20;101772.05;;;24.56;52.74
59873;BME280;50750;51.636;4.948;2022-08-21T03:26:47;101767.77;;;24.56;52.78
59873;BME280;50750;51.636;4.948;2022-08-21T03:29:13;101768.36;;;24.55;52.76
59873;BME280;50750;51.636;4.948;2022-08-21T03:31:40;101764.09;;;24.55;52.73
59873;BME280;50750;51.636;4.948;2022-08-21T03:34:06;101759.69;;;24.54;52.72
59873;BME280;50750;51.636;4.948;2022-08-21T03:36:33;101760.76;;;24.54;52.81
59873;BME280;50750;51.636;4.948;2022-08-21T03:39:00;101754.38;;;24.53;52.79
59873;BME280;50750;51.636;4.948;2022-08-21T03:41:26;101753.85;;;24.53;52.82
59873;BME280;50750;51.636;4.948;2022-08-21T03:43:53;101753.85;;;24.53;52.75
59873;BME280;50750;51.636;4.948;2022-08-21T03:46:21;101750.53;;;24.52;52.93
59873;BME280;50750;51.636;4.948;2022-08-21T03:48:47;101749.46;;;24.52;52.78
59873;BME280;50750;51.636;4.948;2022-08-21T03:51:14;101746.50;;;24.51;52.67
59873;BME280;50750;51.636;4.948;2022-08-21T03:53:41;101748.67;;;24.50;52.75
59873;BME280;50750;51.636;4.948;2022-08-21T03:56:08;101748.20;;;24.49;52.70
59873;BME280;50750;51.636;4.948;2022-08-21T03:58:34;101748.17;;;24.50;52.61
59873;BME280;50750;51.636;4.948;2022-08-21T04:01:03;101750.00;;;24.49;52.83
59873;BME280;50750;51.636;4.948;2022-08-21T04:03:34;101747.03;;;24.48;52.78
59873;BME280;50750;51.636;4.948;2022-08-21T04:06:02;101747.06;;;24.48;52.78
59873;BME280;50750;51.636;4.948;2022-08-21T04:08:28;101748.17;;;24.47;52.79
59873;BME280;50750;51.636;4.948;2022-08-21T04:10:56;101750.19;;;24.47;52.68
59873;BME280;50750;51.636;4.948;2022-08-21T04:13:24;101756.04;;;24.48;52.81
59873;BME280;50750;51.636;4.948;2022-08-21T04:15:55;101757.52;;;24.47;52.77
59873;BME280;50750;51.636;4.948;2022-08-21T04:18:24;101764.29;;;24.48;52.73
59873;BME280;50750;51.636;4.948;2022-08-21T04:20:52;101765.58;;;24.47;52.73
59873;BME280;50750;51.636;4.948;2022-08-21T04:23:20;101768.11;;;24.46;52.78
59873;BME280;50750;51.636;4.948;2022-08-21T04:25:47;101771.89;;;24.46;52.62
59873;BME280;50750;51.636;4.948;2022-08-21T04:28:14;101770.11;;;24.46;52.54
59873;BME280;50750;51.636;4.948;2022-08-21T04:30:41;101773.34;;;24.46;52.71
59873;BME280;50750;51.636;4.948;2022-08-21T04:33:07;101769.42;;;24.45;52.60
59873;BME280;50750;51.636;4.948;2022-08-21T04:35:34;101769.43;;;24.45;52.65
59873;BME280;50750;51.636;4.948;2022-08-21T04:38:01;101766.77;;;24.45;52.55
59873;BME280;50750;51.636;4.948;2022-08-21T04:40:28;101768.52;;;24.45;52.66
59873;BME280;50750;51.636;4.948;2022-08-21T04:42:57;101767.85;;;24.45;52.76
59873;BME280;50750;51.636;4.948;2022-08-21T04:45:31;101768.79;;;24.44;52.69
59873;BME280;50750;51.636;4.948;2022-08-21T04:48:00;101772.71;;;24.44;52.61
59873;BME280;50750;51.636;4.948;2022-08-21T04:50:29;101776.13;;;24.44;52.59
59873;BME280;50750;51.636;4.948;2022-08-21T04:52:58;101773.31;;;24.43;52.61
59873;BME280;50750;51.636;4.948;2022-08-21T04:55:26;101779.23;;;24.43;52.60
59873;BME280;50750;51.636;4.948;2022-08-21T04:57:55;101775.83;;;24.43;52.64
59873;BME280;50750;51.636;4.948;2022-08-21T05:00:23;101774.80;;;24.42;52.59
59873;BME280;50750;51.636;4.948;2022-08-21T05:02:52;101777.29;;;24.43;52.61
59873;BME280;50750;51.636;4.948;2022-08-21T05:05:23;101778.94;;;24.42;52.53
59873;BME280;50750;51.636;4.948;2022-08-21T05:07:50;101778.39;;;24.43;52.55
59873;BME280;50750;51.636;4.948;2022-08-21T05:10:18;101780.67;;;24.43;52.51
59873;BME280;50750;51.636;4.948;2022-08-21T05:12:45;101783.07;;;24.42;52.73
59873;BME280;50750;51.636;4.948;2022-08-21T05:15:12;101782.88;;;24.42;52.55
59873;BME280;50750;51.636;4.948;2022-08-21T05:17:41;101785.76;;;24.42;52.57
59873;BME280;50750;51.636;4.948;2022-08-21T05:20:13;101784.67;;;24.42;52.55
59873;BME280;50750;51.636;4.948;2022-08-21T05:22:39;101787.01;;;24.42;52.72
59873;BME280;50750;51.636;4.948;2022-08-21T05:25:08;101794.72;;;24.42;52.59
59873;BME280;50750;51.636;4.948;2022-08-21T05:27:35;101797.59;;;24.42;52.51
59873;BME280;50750;51.636;4.948;2022-08-21T05:30:03;101801.91;;;24.41;52.49
59873;BME280;50750;51.636;4.948;2022-08-21T05:32:30;101799.22;;;24.41;52.47
59873;BME280;50750;51.636;4.948;2022-08-21T05:34:56;101797.61;;;24.41;52.52
59873;BME280;50750;51.636;4.948;2022-08-21T05:37:23;101798.84;;;24.41;52.56
59873;BME280;50750;51.636;4.948;2022-08-21T05:39:49;101804.05;;;24.41;52.51
59873;BME280;50750;51.636;4.948;2022-08-21T05:42:16;101805.32;;;24.41;52.60
59873;BME280;50750;51.636;4.948;2022-08-21T05:44:42;101806.61;;;24.41;52.56
59873;BME280;50750;51.636;4.948;2022-08-21T05:47:10;101806.42;;;24.41;52.52
59873;BME280;50750;51.636;4.948;2022-08-21T05:49:38;101806.61;;;24.41;52.57
59873;BME280;50750;51.636;4.948;2022-08-21T05:52:04;101804.10;;;24.41;52.53
59873;BME280;50750;51.636;4.948;2022-08-21T05:54:31;101802.88;;;24.40;52.47
59873;BME280;50750;51.636;4.948;2022-08-21T05:56:57;101803.45;;;24.40;52.60
59873;BME280;50750;51.636;4.948;2022-08-21T05:59:24;101800.98;;;24.39;52.42
59873;BME280;50750;51.636;4.948;2022-08-21T06:01:50;101800.11;;;24.39;52.50
59873;BME280;50750;51.636;4.948;2022-08-21T06:04:18;101793.56;;;24.38;52.39
59873;BME280;50750;51.636;4.948;2022-08-21T06:06:45;101792.86;;;24.38;52.52
59873;BME280;50750;51.636;4.948;2022-08-21T06:09:13;101793.95;;;24.38;52.55
59873;BME280;50750;51.636;4.948;2022-08-21T06:11:40;101796.84;;;24.37;52.53
59873;BME280;50750;51.636;4.948;2022-08-21T06:14:06;101793.47;;;24.37;52.54
59873;BME280;50750;51.636;4.948;2022-08-21T06:16:33;101791.34;;;24.37;52.45
59873;BME280;50750;51.636;4.948;2022-08-21T06:19:00;101789.76;;;24.37;52.54
59873;BME280;50750;51.636;4.948;2022-08-21T06:21:26;101794.94;;;24.36;52.59
59873;BME280;50750;51.636;4.948;2022-08-21T06:23:53;101797.09;;;24.36;52.54
59873;BME280;50750;51.636;4.948;2022-08-21T06:26:19;101801.99;;;24.36;52.56
59873;BME280;50750;51.636;4.948;2022-08-21T06:28:46;101803.95;;;24.36;52.53
59873;BME280;50750;51.636;4.948;2022-08-21T06:31:16;101801.66;;;24.35;52.42
59873;BME280;50750;51.636;4.948;2022-08-21T06:33:44;101805.08;;;24.35;52.64
59873;BME280;50750;51.636;4.948;2022-08-21T06:36:10;101810.45;;;24.35;52.47
59873;BME280;50750;51.636;4.948;2022-08-21T06:38:38;101808.88;;;24.35;52.59
59873;BME280;50750;51.636;4.948;2022-08-21T06:41:04;101805.87;;;24.34;52.44
59873;BME280;50750;51.636;4.948;2022-08-21T06:43:31;101804.27;;;24.34;52.65
59873;BME280;50750;51.636;4.948;2022-08-21T06:45:58;101802.73;;;24.33;52.61
59873;BME280;50750;51.636;4.948;2022-08-21T06:48:25;101804.69;;;24.33;52.60
59873;BME280;50750;51.636;4.948;2022-08-21T06:50:52;101801.98;;;24.33;52.56
59873;BME280;50750;51.636;4.948;2022-08-21T06:53:19;101803.75;;;24.34;52.70
59873;BME280;50750;51.636;4.948;2022-08-21T06:55:47;101804.17;;;24.33;52.69
59873;BME280;50750;51.636;4.948;2022-08-21T06:58:14;101802.41;;;24.32;52.50
59873;BME280;50750;51.636;4.948;2022-08-21T07:00:43;101800.79;;;24.33;52.57
59873;BME280;50750;51.636;4.948;2022-08-21T07:05:49;101798.02;;;24.31;52.70
59873;BME280;50750;51.636;4.948;2022-08-21T07:08:15;101799.11;;;24.31;52.71
59873;BME280;50750;51.636;4.948;2022-08-21T07:10:43;101796.27;;;24.31;52.66
59873;BME280;50750;51.636;4.948;2022-08-21T07:13:09;101799.89;;;24.30;52.59
59873;BME280;50750;51.636;4.948;2022-08-21T07:15:36;101799.39;;;24.30;52.73
59873;BME280;50750;51.636;4.948;2022-08-21T07:18:03;101797.47;;;24.29;52.77
59873;BME280;50750;51.636;4.948;2022-08-21T07:20:31;101796.94;;;24.29;52.71
59873;BME280;50750;51.636;4.948;2022-08-21T07:23:01;101794.97;;;24.29;52.68
59873;BME280;50750;51.636;4.948;2022-08-21T07:25:28;101793.23;;;24.28;52.62
59873;BME280;50750;51.636;4.948;2022-08-21T07:27:55;101796.84;;;24.28;52.82
59873;BME280;50750;51.636;4.948;2022-08-21T07:30:22;101796.13;;;24.28;52.62
59873;BME280;50750;51.636;4.948;2022-08-21T07:32:49;101794.55;;;24.27;52.64
59873;BME280;50750;51.636;4.948;2022-08-21T07:35:18;101799.36;;;24.28;52.73
59873;BME280;50750;51.636;4.948;2022-08-21T07:37:45;101800.65;;;24.27;52.77
59873;BME280;50750;51.636;4.948;2022-08-21T07:40:12;101804.21;;;24.27;52.63
59873;BME280;50750;51.636;4.948;2022-08-21T07:42:40;101805.70;;;24.27;52.74
59873;BME280;50750;51.636;4.948;2022-08-21T07:45:08;101809.84;;;24.27;52.84
59873;BME280;50750;51.636;4.948;2022-08-21T07:47:35;101809.67;;;24.26;52.77
59873;BME280;50750;51.636;4.948;2022-08-21T07:50:02;101809.66;;;24.26;52.79
59873;BME280;50750;51.636;4.948;2022-08-21T07:52:29;101805.04;;;24.26;52.79
59873;BME280;50750;51.636;4.948;2022-08-21T07:54:55;101806.48;;;24.26;52.78
59873;BME280;50750;51.636;4.948;2022-08-21T07:57:22;101806.34;;;24.25;52.90
59873;BME280;50750;51.636;4.948;2022-08-21T07:59:48;101805.29;;;24.25;52.90
59873;BME280;50750;51.636;4.948;2022-08-21T08:02:29;101805.49;;;24.24;52.77
59873;BME280;50750;51.636;4.948;2022-08-21T08:05:00;101802.48;;;24.24;52.88
59873;BME280;50750;51.636;4.948;2022-08-21T08:07:27;101796.61;;;24.24;52.88
59873;BME280;50750;51.636;4.948;2022-08-21T08:09:54;101794.83;;;24.23;52.84
59873;BME280;50750;51.636;4.948;2022-08-21T08:12:22;101795.56;;;24.23;52.91
59873;BME280;50750;51.636;4.948;2022-08-21T08:14:49;101794.44;;;24.24;52.83
59873;BME280;50750;51.636;4.948;2022-08-21T08:17:15;101798.56;;;24.24;52.96
59873;BME280;50750;51.636;4.948;2022-08-21T08:19:42;101798.73;;;24.24;52.97
59873;BME280;50750;51.636;4.948;2022-08-21T08:22:14;101794.45;;;24.24;52.86
59873;BME280;50750;51.636;4.948;2022-08-21T08:24:41;101796.45;;;24.23;52.86
59873;BME280;50750;51.636;4.948;2022-08-21T08:27:07;101795.00;;;24.24;52.89
59873;BME280;50750;51.636;4.948;2022-08-21T08:29:34;101794.59;;;24.24;52.96
59873;BME280;50750;51.636;4.948;2022-08-21T08:32:02;101792.83;;;24.24;53.03
59873;BME280;50750;51.636;4.948;2022-08-21T08:34:29;101785.85;;;24.24;52.92
59873;BME280;50750;51.636;4.948;2022-08-21T08:36:56;101788.67;;;24.24;52.95
59873;BME280;50750;51.636;4.948;2022-08-21T08:39:25;101785.98;;;24.24;52.96
59873;BME280;50750;51.636;4.948;2022-08-21T08:42:20;101784.50;;;24.25;52.93
59873;BME280;50750;51.636;4.948;2022-08-21T08:44:45;101780.58;;;24.25;52.96
59873;BME280;50750;51.636;4.948;2022-08-21T08:47:15;101776.11;;;24.25;53.02
59873;BME280;50750;51.636;4.948;2022-08-21T08:49:56;101777.85;;;24.25;53.05
59873;BME280;50750;51.636;4.948;2022-08-21T08:52:35;101780.92;;;24.25;53.07
59873;BME280;50750;51.636;4.948;2022-08-21T08:57:28;101777.70;;;24.25;53.24
59873;BME280;50750;51.636;4.948;2022-08-21T08:59:59;101777.09;;;24.24;53.35
59873;BME280;50750;51.636;4.948;2022-08-21T09:02:26;101772.13;;;24.23;53.31
59873;BME280;50750;51.636;4.948;2022-08-21T09:04:56;101765.50;;;24.23;53.23
59873;BME280;50750;51.636;4.948;2022-08-21T09:13:48;101772.84;;;24.23;53.42
59873;BME280;50750;51.636;4.948;2022-08-21T09:27:34;101770.23;;;24.24;53.45
59873;BME280;50750;51.636;4.948;2022-08-21T09:30:05;101771.08;;;24.25;53.19
59873;BME280;50750;51.636;4.948;2022-08-21T09:32:34;101768.35;;;24.25;53.24
59873;BME280;50750;51.636;4.948;2022-08-21T09:35:10;101763.36;;;24.25;53.22
59873;BME280;50750;51.636;4.948;2022-08-21T09:42:55;101773.81;;;24.27;53.30
59873;BME280;50750;51.636;4.948;2022-08-21T09:45:22;101773.75;;;24.28;53.28
59873;BME280;50750;51.636;4.948;2022-08-21T09:47:49;101775.31;;;24.28;53.26
59873;BME280;50750;51.636;4.948;2022-08-21T09:50:20;101771.86;;;24.29;53.33
59873;BME280;50750;51.636;4.948;2022-08-21T09:52:51;101771.11;;;24.30;53.29
59873;BME280;50750;51.636;4.948;2022-08-21T09:55:31;101779.14;;;24.30;53.22
59873;BME280;50750;51.636;4.948;2022-08-21T09:58:18;101777.30;;;24.31;53.26
59873;BME280;50750;51.636;4.948;2022-08-21T10:00:57;101775.29;;;24.31;53.16
59873;BME280;50750;51.636;4.948;2022-08-21T10:03:25;101768.46;;;24.32;53.17
59873;BME280;50750;51.636;4.948;2022-08-21T10:05:58;101767.56;;;24.32;53.33
59873;BME280;50750;51.636;4.948;2022-08-21T10:08:28;101767.46;;;24.33;53.27
59873;BME280;50750;51.636;4.948;2022-08-21T10:11:06;101765.27;;;24.34;53.21
59873;BME280;50750;51.636;4.948;2022-08-21T10:17:02;101764.48;;;24.35;53.15
59873;BME280;50750;51.636;4.948;2022-08-21T10:19:48;101766.73;;;24.36;53.21
59873;BME280;50750;51.636;4.948;2022-08-21T10:33:52;101761.52;;;24.38;53.21
59873;BME280;50750;51.636;4.948;2022-08-21T10:36:36;101757.20;;;24.39;53.12
59873;BME280;50750;51.636;4.948;2022-08-21T10:39:24;101757.14;;;24.39;53.15
59873;BME280;50750;51.636;4.948;2022-08-21T10:42:08;101755.64;;;24.40;53.21
59873;BME280;50750;51.636;4.948;2022-08-21T10:47:44;101755.52;;;24.42;53.08
59873;BME280;50750;51.636;4.948;2022-08-21T10:58:37;101751.80;;;24.44;53.02
59873;BME280;50750;51.636;4.948;2022-08-21T11:01:15;101750.14;;;24.45;53.11
59873;BME280;50750;51.636;4.948;2022-08-21T11:03:50;101753.31;;;24.45;53.10
59873;BME280;50750;51.636;4.948;2022-08-21T11:06:23;101753.66;;;24.45;52.98
59873;BME280;50750;51.636;4.948;2022-08-21T11:08:58;101753.43;;;24.46;52.95
59873;BME280;50750;51.636;4.948;2022-08-21T11:11:31;101755.02;;;24.47;52.96
59873;BME280;50750;51.636;4.948;2022-08-21T11:17:09;101749.11;;;24.46;53.08
59873;BME280;50750;51.636;4.948;2022-08-21T11:19:45;101740.89;;;24.46;53.02
59873;BME280;50750;51.636;4.948;2022-08-21T11:22:19;101739.79;;;24.47;52.93
59873;BME280;50750;51.636;4.948;2022-08-21T11:24:57;101739.58;;;24.48;53.12
59873;BME280;50750;51.636;4.948;2022-08-21T11:27:41;101744.20;;;24.48;53.08
59873;BME280;50750;51.636;4.948;2022-08-21T11:30:09;101748.81;;;24.49;53.01
59873;BME280;50750;51.636;4.948;2022-08-21T11:35:34;101750.16;;;24.50;53.07
59873;BME280;50750;51.636;4.948;2022-08-21T11:51:59;101757.48;;;24.52;52.88
59873;BME280;50750;51.636;4.948;2022-08-21T11:55:06;101757.80;;;24.53;53.01
59873;BME280;50750;51.636;4.948;2022-08-21T11:57:48;101757.61;;;24.53;52.97
59873;BME280;50750;51.636;4.948;2022-08-21T12:00:24;101759.70;;;24.54;52.94
59873;BME280;50750;51.636;4.948;2022-08-21T12:02:55;101757.14;;;24.54;52.83
59873;BME280;50750;51.636;4.948;2022-08-21T12:05:30;101754.73;;;24.56;52.89
59873;BME280;50750;51.636;4.948;2022-08-21T12:08:05;101749.52;;;24.56;52.84
59873;BME280;50750;51.636;4.948;2022-08-21T12:10:39;101751.41;;;24.57;52.80
59873;BME280;50750;51.636;4.948;2022-08-21T12:13:09;101747.58;;;24.58;52.79
59873;BME280;50750;51.636;4.948;2022-08-21T12:15:37;101750.63;;;24.58;52.76
59873;BME280;50750;51.636;4.948;2022-08-21T12:18:18;101755.58;;;24.58;52.84
59873;BME280;50750;51.636;4.948;2022-08-21T12:21:16;101758.95;;;24.59;52.90
59873;BME280;50750;51.636;4.948;2022-08-21T12:23:48;101758.35;;;24.59;52.61
59873;BME280;50750;51.636;4.948;2022-08-21T12:26:31;101758.35;;;24.59;52.78
59873;BME280;50750;51.636;4.948;2022-08-21T12:29:13;101756.88;;;24.60;52.72
59873;BME280;50750;51.636;4.948;2022-08-21T12:32:24;101759.59;;;24.60;52.82
59873;BME280;50750;51.636;4.948;2022-08-21T12:40:20;101759.18;;;24.60;52.74
59873;BME280;50750;51.636;4.948;2022-08-21T12:42:51;101758.06;;;24.61;52.54
59873;BME280;50750;51.636;4.948;2022-08-21T12:45:20;101764.27;;;24.62;52.65
59873;BME280;50750;51.636;4.948;2022-08-21T12:50:40;101766.71;;;24.63;52.64
59873;BME280;50750;51.636;4.948;2022-08-21T12:53:35;101770.96;;;24.63;52.64
59873;BME280;50750;51.636;4.948;2022-08-21T12:56:02;101771.48;;;24.63;52.73
59873;BME280;50750;51.636;4.948;2022-08-21T12:58:31;101771.80;;;24.64;52.57
59873;BME280;50750;51.636;4.948;2022-08-21T13:01:17;101770.66;;;24.65;52.63
59873;BME280;50750;51.636;4.948;2022-08-21T13:03:47;101770.80;;;24.65;52.66
59873;BME280;50750;51.636;4.948;2022-08-21T13:06:17;101772.56;;;24.65;52.74
59873;BME280;50750;51.636;4.948;2022-08-21T13:08:46;101770.93;;;24.66;52.52
59873;BME280;50750;51.636;4.948;2022-08-21T13:11:18;101772.09;;;24.67;52.56
59873;BME280;50750;51.636;4.948;2022-08-21T13:13:51;101772.97;;;24.68;52.57
59873;BME280;50750;51.636;4.948;2022-08-21T13:16:27;101773.28;;;24.68;52.42
59873;BME280;50750;51.636;4.948;2022-08-21T13:19:03;101771.67;;;24.68;52.54
59873;BME280;50750;51.636;4.948;2022-08-21T13:21:41;101771.29;;;24.68;52.61
59873;BME280;50750;51.636;4.948;2022-08-21T13:24:19;101768.92;;;24.69;52.60
59873;BME280;50750;51.636;4.948;2022-08-21T13:26:47;101768.32;;;24.70;52.59
59873;BME280;50750;51.636;4.948;2022-08-21T13:29:17;101770.39;;;24.71;52.50
59873;BME280;50750;51.636;4.948;2022-08-21T13:31:56;101768.20;;;24.71;52.51
59873;BME280;50750;51.636;4.948;2022-08-21T13:34:29;101768.17;;;24.72;52.58
59873;BME280;50750;51.636;4.948;2022-08-21T13:36:59;101774.95;;;24.72;52.54
59873;BME280;50750;51.636;4.948;2022-08-21T13:39:27;101774.14;;;24.74;52.36
59873;BME280;50750;51.636;4.948;2022-08-21T13:41:56;101773.18;;;24.74;52.44
59873;BME280;50750;51.636;4.948;2022-08-21T13:44:42;101770.84;;;24.74;52.36
59873;BME280;50750;51.636;4.948;2022-08-21T13:47:13;101767.92;;;24.75;52.36
59873;BME280;50750;51.636;4.948;2022-08-21T13:49:43;101764.98;;;24.76;52.40
59873;BME280;50750;51.636;4.948;2022-08-21T13:52:24;101759.75;;;24.77;52.37
59873;BME280;50750;51.636;4.948;2022-08-21T13:55:00;101755.10;;;24.77;52.49
59873;BME280;50750;51.636;4.948;2022-08-21T13:57:32;101753.98;;;24.77;52.31
59873;BME280;50750;51.636;4.948;2022-08-21T14:00:16;101751.98;;;24.78;52.41
59873;BME280;50750;51.636;4.948;2022-08-21T14:02:47;101752.86;;;24.78;52.48
59873;BME280;50750;51.636;4.948;2022-08-21T14:05:37;101748.49;;;24.79;52.35
59873;BME280;50750;51.636;4.948;2022-08-21T14:08:08;101748.11;;;24.79;52.32
59873;BME280;50750;51.636;4.948;2022-08-21T14:10:43;101747.55;;;24.79;52.31
59873;BME280;50750;51.636;4.948;2022-08-21T14:13:33;101756.11;;;24.80;52.37
59873;BME280;50750;51.636;4.948;2022-08-21T14:16:03;101754.13;;;24.80;52.36
59873;BME280;50750;51.636;4.948;2022-08-21T14:18:30;101759.30;;;24.80;52.42
59873;BME280;50750;51.636;4.948;2022-08-21T14:21:05;101757.46;;;24.81;52.32
59873;BME280;50750;51.636;4.948;2022-08-21T14:23:32;101756.36;;;24.81;52.36
59873;BME280;50750;51.636;4.948;2022-08-21T14:26:05;101759.78;;;24.81;52.28
59873;BME280;50750;51.636;4.948;2022-08-21T14:28:35;101759.19;;;24.81;52.46